sensor_id;sensor_type;location;lat;lon;timestamp;pressure;altitude;pressure_sealevel;temperature;humidity
3590;BME280;1809;48.470;9.226;2023-04-25T00:02:24;-13740.78;;;8.38;100.00
3590;BME280;1809;48.470;9.226;2023-04-25T00:04:49;-7489.31;;;8.34;100.00
3590;BME280;1809;48.470;9.226;2023-04-25T00:07:15;-10532.69;;;8.43;100.00
3590;BME280;1809;48.470;9.226;2023-04-25T00:09:41;-16406.34;;;8.51;100.00
3590;BME280;1809;48.470;9.226;2023-04-25T00:12:06;-16410.16;;;8.65;100.00
3590;BME280;1809;48.470;9.226;2023-04-25T00:14:32;-16411.97;;;8.72;100.00
3590;BME280;1809;48.470;9.226;2023-04-25T00:17:00;-16411.97;;;8.72;100.00
3590;BME280;1809;48.470;9.226;2023-04-25T00:19:26;-16413.78;;;8.78;100.00
3590;BME280;1809;48.470;9.226;2023-04-25T00:21:56;-16414.78;;;8.82;100.00
3590;BME280;1809;48.470;9.226;2023-04-25T00:24:21;-16415.34;;;8.84;100.00
3590;BME280;1809;48.470;9.226;2023-04-25T00:26:47;-16413.66;;;8.78;100.00
3590;BME280;1809;48.470;9.226;2023-04-25T00:29:12;-16414.94;;;8.82;100.00
3590;BME280;1809;48.470;9.226;2023-04-25T00:31:38;-16412.25;;;8.73;100.00
3590;BME280;1809;48.470;9.226;2023-04-25T00:34:03;-16411.13;;;8.69;100.00
3590;BME280;1809;48.470;9.226;2023-04-25T00:36:28;-16409.16;;;8.61;100.00
3590;BME280;1809;48.470;9.226;2023-04-25T00:38:54;-16408.47;;;8.59;100.00
3590;BME280;1809;48.470;9.226;2023-04-25T00:41:20;-16406.91;;;8.53;100.00
3590;BME280;1809;48.470;9.226;2023-04-25T00:43:47;-10467.13;;;8.52;100.00
3590;BME280;1809;48.470;9.226;2023-04-25T00:46:13;5101.13;;;8.56;100.00
3590;BME280;1809;48.470;9.226;2023-04-25T00:48:38;12413.66;;;8.53;100.00
3590;BME280;1809;48.470;9.226;2023-04-25T00:51:03;13744.34;;;8.50;100.00
3590;BME280;1809;48.470;9.226;2023-04-25T00:53:30;23074.22;;;8.39;100.00
3590;BME280;1809;48.470;9.226;2023-04-25T00:55:57;29421.50;;;8.39;100.00
3590;BME280;1809;48.470;9.226;2023-04-25T00:58:22;35780.47;;;8.38;100.00
3590;BME280;1809;48.470;9.226;2023-04-25T01:00:50;41145.84;;;8.39;100.00
3590;BME280;1809;48.470;9.226;2023-04-25T01:03:17;45179.47;;;8.45;100.00
3590;BME280;1809;48.470;9.226;2023-04-25T01:05:45;46510.56;;;8.27;100.00
3590;BME280;1809;48.470;9.226;2023-04-25T01:08:10;51222.56;;;8.32;100.00
3590;BME280;1809;48.470;9.226;2023-04-25T01:10:36;53914.19;;;8.30;100.00
3590;BME280;1809;48.470;9.226;2023-04-25T01:13:02;54584.28;;;8.26;100.00
3590;BME280;1809;48.470;9.226;2023-04-25T01:15:28;51902.44;;;8.40;100.00
3590;BME280;1809;48.470;9.226;2023-04-25T01:17:54;45515.84;;;8.45;100.00
3590;BME280;1809;48.470;9.226;2023-04-25T01:20:22;33777.16;;;8.49;100.00
3590;BME280;1809;48.470;9.226;2023-04-25T01:22:48;23747.06;;;8.53;100.00
3590;BME280;1809;48.470;9.226;2023-04-25T01:25:14;18072.56;;;8.43;100.00
3590;BME280;1809;48.470;9.226;2023-04-25T01:27:40;9419.56;;;8.49;100.00
3590;BME280;1809;48.470;9.226;2023-04-25T01:30:06;13743.28;;;8.45;100.00
3590;BME280;1809;48.470;9.226;2023-04-25T01:32:33;26412.25;;;8.36;100.00
3590;BME280;1809;48.470;9.226;2023-04-25T01:35:05;34106.31;;;8.39;100.00
3590;BME280;1809;48.470;9.226;2023-04-25T01:37:37;30760.81;;;8.42;100.00
3590;BME280;1809;48.470;9.226;2023-04-25T01:40:03;27083.50;;;8.43;100.00
3590;BME280;1809;48.470;9.226;2023-04-25T01:42:31;26745.91;;;8.35;100.00
3590;BME280;1809;48.470;9.226;2023-04-25T01:44:57;29085.25;;;8.35;100.00
3590;BME280;1809;48.470;9.226;2023-04-25T01:47:22;26751.44;;;8.48;100.00
3590;BME280;1809;48.470;9.226;2023-04-25T01:49:48;7758.66;;;8.57;100.00
3590;BME280;1809;48.470;9.226;2023-04-25T01:52:13;455.75;;;8.60;100.00
3590;BME280;1809;48.470;9.226;2023-04-25T01:54:38;-1201.53;;;8.52;100.00
3590;BME280;1809;48.470;9.226;2023-04-25T01:57:09;8090.28;;;8.51;100.00
3590;BME280;1809;48.470;9.226;2023-04-25T01:59:34;14409.06;;;8.45;100.00
3590;BME280;1809;48.470;9.226;2023-04-25T02:02:00;24743.84;;;8.40;100.00
3590;BME280;1809;48.470;9.226;2023-04-25T02:04:28;37117.28;;;8.32;100.00
3590;BME280;1809;48.470;9.226;2023-04-25T02:06:54;44491.69;;;8.23;100.00
3590;BME280;1809;48.470;9.226;2023-04-25T02:09:19;39123.28;;;8.23;100.00
3590;BME280;1809;48.470;9.226;2023-04-25T02:11:45;41809.28;;;8.27;100.00
3590;BME280;1809;48.470;9.226;2023-04-25T02:14:10;39797.13;;;8.28;100.00
3590;BME280;1809;48.470;9.226;2023-04-25T02:16:35;34771.38;;;8.30;100.00
3590;BME280;1809;48.470;9.226;2023-04-25T02:19:01;32093.88;;;8.31;100.00
3590;BME280;1809;48.470;9.226;2023-04-25T02:21:26;34765.22;;;8.19;100.00
3590;BME280;1809;48.470;9.226;2023-04-25T02:23:52;36442.41;;;8.24;100.00
3590;BME280;1809;48.470;9.226;2023-04-25T02:26:17;36777.72;;;8.24;100.00
3590;BME280;1809;48.470;9.226;2023-04-25T02:28:42;45500.38;;;8.24;100.00
3590;BME280;1809;48.470;9.226;2023-04-25T02:31:08;45840.03;;;8.29;100.00
3590;BME280;1809;48.470;9.226;2023-04-25T02:33:33;46841.31;;;8.20;100.00
3590;BME280;1809;48.470;9.226;2023-04-25T02:35:59;57277.72;;;8.24;100.00
3590;BME280;1809;48.470;9.226;2023-04-25T02:38:24;58279.19;;;8.13;100.00
3590;BME280;1809;48.470;9.226;2023-04-25T02:40:50;59972.09;;;8.20;100.00
3590;BME280;1809;48.470;9.226;2023-04-25T02:43:15;59967.72;;;8.16;100.00
3590;BME280;1809;48.470;9.226;2023-04-25T02:45:41;64340.44;;;8.01;100.00
3590;BME280;1809;48.470;9.226;2023-04-25T02:48:06;69404.13;;;7.96;100.00
3590;BME280;1809;48.470;9.226;2023-04-25T02:50:32;72103.84;;;7.91;100.00
3590;BME280;1809;48.470;9.226;2023-04-25T02:52:57;73802.84;;;7.96;100.00
3590;BME280;1809;48.470;9.226;2023-04-25T02:55:22;72790.22;;;7.99;100.00
3590;BME280;1809;48.470;9.226;2023-04-25T02:57:48;72448.19;;;7.96;100.00
3590;BME280;1809;48.470;9.226;2023-04-25T03:00:13;71424.84;;;7.89;100.00
3590;BME280;1809;48.470;9.226;2023-04-25T03:02:39;72107.41;;;7.94;100.00
3590;BME280;1809;48.470;9.226;2023-04-25T03:05:04;70404.34;;;7.84;100.00
3590;BME280;1809;48.470;9.226;2023-04-25T03:07:31;72086.78;;;7.76;100.00
3590;BME280;1809;48.470;9.226;2023-04-25T03:09:56;73770.25;;;7.69;100.00
3590;BME280;1809;48.470;9.226;2023-04-25T03:12:22;75116.25;;;7.63;100.00
3590;BME280;1809;48.470;9.226;2023-04-25T03:14:47;76122.00;;;7.54;100.00
3590;BME280;1809;48.470;9.226;2023-04-25T03:17:12;77798.13;;;7.41;100.00
3590;BME280;1809;48.470;9.226;2023-04-25T03:19:37;79826.16;;;7.37;100.00
3590;BME280;1809;48.470;9.226;2023-04-25T03:22:03;81846.41;;;7.27;100.00
3590;BME280;1809;48.470;9.226;2023-04-25T03:24:28;84558.75;;;7.27;100.00
3590;BME280;1809;48.470;9.226;2023-04-25T03:26:53;85575.94;;;7.26;100.00
3590;BME280;1809;48.470;9.226;2023-04-25T03:29:19;86936.50;;;7.28;100.00
3590;BME280;1809;48.470;9.226;2023-04-25T03:31:49;88972.63;;;7.27;100.00
3590;BME280;1809;48.470;9.226;2023-04-25T03:34:14;89987.44;;;7.24;100.00
3590;BME280;1809;48.470;9.226;2023-04-25T03:36:40;91346.81;;;7.24;100.00
3590;BME280;1809;48.470;9.226;2023-04-25T03:39:05;92371.25;;;7.27;100.00
3590;BME280;1809;48.470;9.226;2023-04-25T03:41:31;93050.59;;;7.27;100.00
3590;BME280;1809;48.470;9.226;2023-04-25T03:43:56;95103.50;;;7.34;100.00
3590;BME280;1809;48.470;9.226;2023-04-25T03:46:21;95791.31;;;7.39;100.00
3590;BME280;1809;48.470;9.226;2023-04-25T03:48:47;95106.63;;;7.36;100.00
3590;BME280;1809;48.470;9.226;2023-04-25T03:51:12;96469.88;;;7.37;100.00
3590;BME280;1809;48.470;9.226;2023-04-25T03:53:38;98510.13;;;7.35;100.00
3590;BME280;1809;48.470;9.226;2023-04-25T03:56:03;101918.53;;;7.35;100.00
3590;BME280;1809;48.470;9.226;2023-04-25T03:58:28;101572.53;;;7.32;100.00
3590;BME280;1809;48.470;9.226;2023-04-25T04:00:54;101233.28;;;7.33;100.00
3590;BME280;1809;48.470;9.226;2023-04-25T04:03:19;100547.34;;;7.31;100.00
3590;BME280;1809;48.470;9.226;2023-04-25T04:05:45;100887.38;;;7.30;100.00
3590;BME280;1809;48.470;9.226;2023-04-25T04:08:11;100204.84;;;7.30;100.00
3590;BME280;1809;48.470;9.226;2023-04-25T04:10:36;100227.13;;;7.43;100.00
3590;BME280;1809;48.470;9.226;2023-04-25T04:13:02;97840.94;;;7.43;100.00
3590;BME280;1809;48.470;9.226;2023-04-25T04:15:27;95802.34;;;7.46;100.00
3590;BME280;1809;48.470;9.226;2023-04-25T04:17:53;95465.81;;;7.48;100.00
3590;BME280;1809;48.470;9.226;2023-04-25T04:20:19;95121.50;;;7.46;100.00
3590;BME280;1809;48.470;9.226;2023-04-25T04:22:44;95461.13;;;7.45;100.00
3590;BME280;1809;48.470;9.226;2023-04-25T04:25:10;94802.16;;;7.60;100.00
3590;BME280;1809;48.470;9.226;2023-04-25T04:27:37;92773.03;;;7.68;100.00
3590;BME280;1809;48.470;9.226;2023-04-25T04:30:03;92084.22;;;7.63;100.00
3590;BME280;1809;48.470;9.226;2023-04-25T04:32:29;91747.03;;;7.65;100.00
3590;BME280;1809;48.470;9.226;2023-04-25T04:34:55;91747.03;;;7.65;100.00
3590;BME280;1809;48.470;9.226;2023-04-25T04:37:21;88686.09;;;7.64;100.00
3590;BME280;1809;48.470;9.226;2023-04-25T04:39:47;84955.84;;;7.69;100.00
3590;BME280;1809;48.470;9.226;2023-04-25T04:42:12;81910.19;;;7.75;100.00
3590;BME280;1809;48.470;9.226;2023-04-25T04:44:38;80558.00;;;7.79;100.00
3590;BME280;1809;48.470;9.226;2023-04-25T04:47:04;78867.19;;;7.82;100.00
3590;BME280;1809;48.470;9.226;2023-04-25T04:49:31;77856.72;;;7.87;100.00
3590;BME280;1809;48.470;9.226;2023-04-25T04:51:57;74137.78;;;7.93;100.00
3590;BME280;1809;48.470;9.226;2023-04-25T04:54:22;72447.00;;;7.95;100.00
3590;BME280;1809;48.470;9.226;2023-04-25T04:56:47;71436.50;;;7.99;100.00
3590;BME280;1809;48.470;9.226;2023-04-25T04:59:13;70089.06;;;8.04;100.00
3590;BME280;1809;48.470;9.226;2023-04-25T05:01:38;69075.00;;;8.04;100.00
3590;BME280;1809;48.470;9.226;2023-04-25T05:04:04;68066.78;;;8.10;100.00
3590;BME280;1809;48.470;9.226;2023-04-25T05:06:30;65706.38;;;8.15;100.00
3590;BME280;1809;48.470;9.226;2023-04-25T05:08:56;52899.22;;;8.25;100.00
3590;BME280;1809;48.470;9.226;2023-04-25T05:11:22;44505.72;;;8.42;100.00
3590;BME280;1809;48.470;9.226;2023-04-25T05:13:49;30770.41;;;8.61;100.00
3590;BME280;1809;48.470;9.226;2023-04-25T05:16:15;13413.53;;;8.60;100.00
3590;BME280;1809;48.470;9.226;2023-04-25T05:18:40;14746.34;;;8.64;100.00
3590;BME280;1809;48.470;9.226;2023-04-25T05:21:06;9090.31;;;8.73;100.00
3590;BME280;1809;48.470;9.226;2023-04-25T05:23:32;2446.22;;;8.71;100.00
3590;BME280;1809;48.470;9.226;2023-04-25T05:25:58;2446.16;;;8.69;100.00
3590;BME280;1809;48.470;9.226;2023-04-25T05:28:23;4105.78;;;8.69;100.00
3590;BME280;1809;48.470;9.226;2023-04-25T05:30:49;4437.53;;;8.64;100.00
3590;BME280;1809;48.470;9.226;2023-04-25T05:33:14;1782.41;;;8.60;100.00
3590;BME280;1809;48.470;9.226;2023-04-25T05:35:40;6762.53;;;8.64;100.00
3590;BME280;1809;48.470;9.226;2023-04-25T05:38:05;7428.63;;;8.79;100.00
3590;BME280;1809;48.470;9.226;2023-04-25T05:40:31;-3853.63;;;8.80;100.00
3590;BME280;1809;48.470;9.226;2023-04-25T05:42:57;-5841.91;;;8.92;100.00
3590;BME280;1809;48.470;9.226;2023-04-25T05:45:22;-14695.78;;;9.04;100.00
3590;BME280;1809;48.470;9.226;2023-04-25T05:47:48;-16425.31;;;9.19;100.00
3590;BME280;1809;48.470;9.226;2023-04-25T05:50:13;-16427.44;;;9.27;100.00
3590;BME280;1809;48.470;9.226;2023-04-25T05:52:39;-16432.50;;;9.45;100.00
3590;BME280;1809;48.470;9.226;2023-04-25T05:55:04;-16439.22;;;9.69;100.00
3590;BME280;1809;48.470;9.226;2023-04-25T05:57:31;-16446.25;;;9.95;100.00
3590;BME280;1809;48.470;9.226;2023-04-25T05:59:56;-16450.47;;;10.10;100.00
3590;BME280;1809;48.470;9.226;2023-04-25T06:02:21;-16455.53;;;10.28;100.00
3590;BME280;1809;48.470;9.226;2023-04-25T06:04:49;-16463.69;;;10.57;100.00
3590;BME280;1809;48.470;9.226;2023-04-25T06:07:14;-16457.09;;;10.34;100.00
3590;BME280;1809;48.470;9.226;2023-04-25T06:09:40;-16466.78;;;10.68;100.00
3590;BME280;1809;48.470;9.226;2023-04-25T06:12:06;-16468.88;;;10.76;100.00
3590;BME280;1809;48.470;9.226;2023-04-25T06:14:32;-16470.97;;;10.84;100.00
3590;BME280;1809;48.470;9.226;2023-04-25T06:16:57;-16468.31;;;10.74;100.00
3590;BME280;1809;48.470;9.226;2023-04-25T06:19:23;-16466.50;;;10.67;100.00
3590;BME280;1809;48.470;9.226;2023-04-25T06:21:48;-16458.34;;;10.38;100.00
3590;BME280;1809;48.470;9.226;2023-04-25T06:24:13;-16458.19;;;10.38;100.00
3590;BME280;1809;48.470;9.226;2023-04-25T06:26:39;-16453.44;;;10.20;100.00
3590;BME280;1809;48.470;9.226;2023-04-25T06:29:04;-16455.53;;;10.28;100.00
3590;BME280;1809;48.470;9.226;2023-04-25T06:31:29;-16450.91;;;10.11;100.00
3590;BME280;1809;48.470;9.226;2023-04-25T06:33:57;-16442.75;;;9.82;100.00
3590;BME280;1809;48.470;9.226;2023-04-25T06:36:22;-16446.41;;;9.95;100.00
3590;BME280;1809;48.470;9.226;2023-04-25T06:38:51;-16443.88;;;9.86;100.00
3590;BME280;1809;48.470;9.226;2023-04-25T06:41:17;-16441.75;;;9.79;100.00
3590;BME280;1809;48.470;9.226;2023-04-25T06:43:42;-16444.00;;;9.87;100.00
3590;BME280;1809;48.470;9.226;2023-04-25T06:46:08;-16443.16;;;9.84;100.00
3590;BME280;1809;48.470;9.226;2023-04-25T06:48:33;-16442.59;;;9.82;100.00
3590;BME280;1809;48.470;9.226;2023-04-25T06:50:58;-16432.78;;;9.46;100.00
3590;BME280;1809;48.470;9.226;2023-04-25T06:53:24;-16434.19;;;9.51;100.00
3590;BME280;1809;48.470;9.226;2023-04-25T06:55:49;-16431.94;;;9.43;100.00
3590;BME280;1809;48.470;9.226;2023-04-25T06:58:15;-16433.34;;;9.48;100.00
3590;BME280;1809;48.470;9.226;2023-04-25T07:00:40;-16433.75;;;9.50;100.00
3590;BME280;1809;48.470;9.226;2023-04-25T07:03:05;-15443.03;;;9.30;100.00
3590;BME280;1809;48.470;9.226;2023-04-25T07:05:31;-540.69;;;9.42;100.00
3590;BME280;1809;48.470;9.226;2023-04-25T07:07:56;-6508.34;;;9.28;100.00
3590;BME280;1809;48.470;9.226;2023-04-25T07:10:22;-7171.25;;;9.31;100.00
3590;BME280;1809;48.470;9.226;2023-04-25T07:12:47;-4851.91;;;9.30;100.00
3590;BME280;1809;48.470;9.226;2023-04-25T07:15:13;123.53;;;9.18;100.00
3590;BME280;1809;48.470;9.226;2023-04-25T07:17:38;14422.31;;;9.05;100.00
3590;BME280;1809;48.470;9.226;2023-04-25T07:20:04;27441.72;;;8.99;100.00
3590;BME280;1809;48.470;9.226;2023-04-25T07:22:31;37490.38;;;8.95;100.00
3590;BME280;1809;48.470;9.226;2023-04-25T07:24:57;56663.44;;;8.89;100.00
3590;BME280;1809;48.470;9.226;2023-04-25T07:27:22;64090.97;;;8.86;100.00
3590;BME280;1809;48.470;9.226;2023-04-25T07:29:47;63746.13;;;8.80;100.00
3590;BME280;1809;48.470;9.226;2023-04-25T07:32:13;72554.81;;;8.87;100.00
3590;BME280;1809;48.470;9.226;2023-04-25T07:34:39;78995.78;;;8.83;100.00
3590;BME280;1809;48.470;9.226;2023-04-25T07:37:05;79672.38;;;8.81;100.00
3590;BME280;1809;48.470;9.226;2023-04-25T07:39:30;80690.75;;;8.80;100.00
3590;BME280;1809;48.470;9.226;2023-04-25T07:41:55;82379.63;;;8.73;100.00
3590;BME280;1809;48.470;9.226;2023-04-25T07:44:23;86796.19;;;8.70;100.00
3590;BME280;1809;48.470;9.226;2023-04-25T07:46:49;90881.78;;;8.70;100.00
3590;BME280;1809;48.470;9.226;2023-04-25T07:49:14;98064.16;;;8.83;100.00
3590;BME280;1809;48.470;9.226;2023-04-25T07:51:40;97711.47;;;8.76;100.00
3590;BME280;1809;48.470;9.226;2023-04-25T07:54:06;104183.00;;;8.63;100.00
3590;BME280;1809;48.470;9.226;2023-04-25T07:56:32;109657.41;;;8.63;100.00
3590;BME280;1809;48.470;9.226;2023-04-25T07:58:57;113750.78;;;8.53;100.00
3590;BME280;1809;48.470;9.226;2023-04-25T08:01:23;117511.19;;;8.46;100.00
3590;BME280;1809;48.470;9.226;2023-04-25T08:03:48;122656.13;;;8.43;100.00
3590;BME280;1809;48.470;9.226;2023-04-25T08:06:13;126785.25;;;8.45;100.00
3590;BME280;1809;48.470;9.226;2023-04-25T08:08:38;131959.56;;;8.49;100.00
3590;BME280;1809;48.470;9.226;2023-04-25T08:11:04;136101.34;;;8.51;100.00
3590;BME280;1809;48.470;9.226;2023-04-25T08:13:30;138151.28;;;8.42;100.00
3590;BME280;1809;48.470;9.226;2023-04-25T08:15:55;138830.13;;;8.37;100.00
3590;BME280;1809;48.470;9.226;2023-04-25T08:18:20;140887.75;;;8.31;100.00
3590;BME280;1809;48.470;9.226;2023-04-25T08:20:46;142617.19;;;8.32;100.00
3590;BME280;1809;48.470;9.226;2023-04-25T08:23:12;144335.59;;;8.28;100.00
3590;BME280;1809;48.470;9.226;2023-04-25T08:25:37;146412.56;;;8.29;100.00
3590;BME280;1809;48.470;9.226;2023-04-25T08:28:02;147784.00;;;8.24;100.00
3590;BME280;1809;48.470;9.226;2023-04-25T08:30:29;149152.00;;;8.18;100.00
3590;BME280;1809;48.470;9.226;2023-04-25T08:32:54;150177.91;;;8.13;100.00
3590;BME280;1809;48.470;9.226;2023-04-25T08:35:20;150512.75;;;8.08;100.00
3590;BME280;1809;48.470;9.226;2023-04-25T08:37:45;150825.06;;;7.94;100.00
3590;BME280;1809;48.470;9.226;2023-04-25T08:40:13;151142.28;;;7.83;100.00
3590;BME280;1809;48.470;9.226;2023-04-25T08:42:41;151862.28;;;7.94;100.00
3590;BME280;1809;48.470;9.226;2023-04-25T08:45:07;152885.69;;;7.88;100.00
3590;BME280;1809;48.470;9.226;2023-04-25T08:47:33;153545.09;;;7.75;100.00
3590;BME280;1809;48.470;9.226;2023-04-25T08:49:59;154912.31;;;7.68;100.00
3590;BME280;1809;48.470;9.226;2023-04-25T08:52:31;155214.72;;;7.50;100.00
3590;BME280;1809;48.470;9.226;2023-04-25T08:54:57;155909.94;;;7.51;100.00
3590;BME280;1809;48.470;9.226;2023-04-25T08:57:23;156636.59;;;7.65;100.00
3590;BME280;1809;48.470;9.226;2023-04-25T08:59:49;156667.97;;;7.76;100.00
3590;BME280;1809;48.470;9.226;2023-04-25T09:02:15;156708.38;;;7.91;100.00
3590;BME280;1809;48.470;9.226;2023-04-25T09:04:44;156654.94;;;7.71;100.00
3590;BME280;1809;48.470;9.226;2023-04-25T09:07:10;156592.38;;;7.46;100.00
3590;BME280;1809;48.470;9.226;2023-04-25T09:09:35;156579.31;;;7.41;100.00
3590;BME280;1809;48.470;9.226;2023-04-25T09:12:01;156493.31;;;7.08;100.00
3590;BME280;1809;48.470;9.226;2023-04-25T09:14:27;156456.84;;;6.94;100.00
3590;BME280;1809;48.470;9.226;2023-04-25T09:19:31;156467.22;;;6.98;100.00
3590;BME280;1809;48.470;9.226;2023-04-25T09:21:58;156490.69;;;7.07;100.00
3590;BME280;1809;48.470;9.226;2023-04-25T09:26:58;156488.13;;;7.06;100.00
3590;BME280;1809;48.470;9.226;2023-04-25T09:29:32;156480.28;;;7.03;100.00
3590;BME280;1809;48.470;9.226;2023-04-25T09:32:11;156490.69;;;7.07;100.00
3590;BME280;1809;48.470;9.226;2023-04-25T09:34:41;156495.94;;;7.09;100.00
3590;BME280;1809;48.470;9.226;2023-04-25T09:37:11;156433.41;;;6.85;100.00
3590;BME280;1809;48.470;9.226;2023-04-25T09:39:37;156400.81;;;6.72;100.00
3590;BME280;1809;48.470;9.226;2023-04-25T09:42:04;156377.31;;;6.63;100.00
3590;BME280;1809;48.470;9.226;2023-04-25T09:44:30;156352.50;;;6.55;100.00
3590;BME280;1809;48.470;9.226;2023-04-25T09:46:55;156001.47;;;6.53;100.00
3590;BME280;1809;48.470;9.226;2023-04-25T09:49:20;156368.13;;;6.61;100.00
3590;BME280;1809;48.470;9.226;2023-04-25T09:51:59;156365.53;;;6.60;100.00
3590;BME280;1809;48.470;9.226;2023-04-25T09:54:25;156009.28;;;6.56;100.00
3590;BME280;1809;48.470;9.226;2023-04-25T09:56:52;154943.56;;;6.44;100.00
3590;BME280;1809;48.470;9.226;2023-04-25T09:59:20;153540.78;;;6.36;100.00
3590;BME280;1809;48.470;9.226;2023-04-25T10:01:48;153205.53;;;6.40;100.00
3590;BME280;1809;48.470;9.226;2023-04-25T10:04:19;153208.06;;;6.41;100.00
3590;BME280;1809;48.470;9.226;2023-04-25T10:06:46;153581.69;;;6.53;100.00
3590;BME280;1809;48.470;9.226;2023-04-25T10:09:15;152839.69;;;6.32;100.00
3590;BME280;1809;48.470;9.226;2023-04-25T10:11:41;152151.56;;;6.33;100.00
3590;BME280;1809;48.470;9.226;2023-04-25T10:14:06;151796.13;;;6.29;100.00
3590;BME280;1809;48.470;9.226;2023-04-25T10:16:32;151815.09;;;6.37;100.00
3590;BME280;1809;48.470;9.226;2023-04-25T10:18:57;152164.22;;;6.38;100.00
3590;BME280;1809;48.470;9.226;2023-04-25T10:21:24;151808.78;;;6.34;100.00
3590;BME280;1809;48.470;9.226;2023-04-25T10:23:52;150706.53;;;6.08;100.00
3590;BME280;1809;48.470;9.226;2023-04-25T10:26:18;149615.47;;;5.85;100.00
3590;BME280;1809;48.470;9.226;2023-04-25T10:28:57;149596.78;;;5.77;100.00
3590;BME280;1809;48.470;9.226;2023-04-25T10:31:23;149940.28;;;5.77;100.00
3590;BME280;1809;48.470;9.226;2023-04-25T10:33:48;149917.81;;;5.68;100.00
3590;BME280;1809;48.470;9.226;2023-04-25T10:36:24;149527.03;;;5.49;100.00
3590;BME280;1809;48.470;9.226;2023-04-25T10:38:52;149145.16;;;5.34;100.00
3590;BME280;1809;48.470;9.226;2023-04-25T10:41:21;149121.56;;;5.24;100.00
3590;BME280;1809;48.470;9.226;2023-04-25T10:43:49;149479.69;;;5.30;100.00
3590;BME280;1809;48.470;9.226;2023-04-25T10:48:50;149066.91;;;5.02;100.00
3590;BME280;1809;48.470;9.226;2023-04-25T10:51:21;148346.25;;;4.89;100.00
3590;BME280;1809;48.470;9.226;2023-04-25T10:56:23;149059.47;;;4.99;100.00
3590;BME280;1809;48.470;9.226;2023-04-25T10:58:50;150162.47;;;5.27;100.00
3590;BME280;1809;48.470;9.226;2023-04-25T11:01:20;149830.41;;;5.32;100.00
3590;BME280;1809;48.470;9.226;2023-04-25T11:03:46;149495.88;;;5.36;100.00
3590;BME280;1809;48.470;9.226;2023-04-25T11:06:22;149172.50;;;5.45;100.00
3590;BME280;1809;48.470;9.226;2023-04-25T11:08:49;149222.22;;;5.65;100.00
3590;BME280;1809;48.470;9.226;2023-04-25T11:11:18;149965.31;;;5.87;100.00
3590;BME280;1809;48.470;9.226;2023-04-25T11:13:46;150736.63;;;6.20;100.00
3590;BME280;1809;48.470;9.226;2023-04-25T11:16:13;151112.00;;;6.32;100.00
3590;BME280;1809;48.470;9.226;2023-04-25T11:18:41;151159.75;;;6.51;100.00
3590;BME280;1809;48.470;9.226;2023-04-25T11:21:06;150828.31;;;6.57;100.00
3590;BME280;1809;48.470;9.226;2023-04-25T11:23:31;150145.22;;;6.60;100.00
3590;BME280;1809;48.470;9.226;2023-04-25T11:25:57;149459.69;;;6.62;100.00
3590;BME280;1809;48.470;9.226;2023-04-25T11:28:22;149159.16;;;6.80;100.00
3590;BME280;1809;48.470;9.226;2023-04-25T11:30:51;148456.31;;;6.75;100.00
3590;BME280;1809;48.470;9.226;2023-04-25T11:33:16;147073.31;;;6.74;100.00
3590;BME280;1809;48.470;9.226;2023-04-25T11:35:42;145674.00;;;6.66;100.00
3590;BME280;1809;48.470;9.226;2023-04-25T11:38:07;146413.72;;;6.86;100.00
3590;BME280;1809;48.470;9.226;2023-04-25T11:40:33;144693.59;;;6.88;100.00
3590;BME280;1809;48.470;9.226;2023-04-25T11:43:00;143634.00;;;6.78;100.00
3590;BME280;1809;48.470;9.226;2023-04-25T11:45:26;143978.75;;;6.78;100.00
3590;BME280;1809;48.470;9.226;2023-04-25T11:47:52;144346.34;;;6.87;100.00
3590;BME280;1809;48.470;9.226;2023-04-25T11:50:17;143999.09;;;6.86;100.00
3590;BME280;1809;48.470;9.226;2023-04-25T11:52:46;143667.38;;;6.92;100.00
3590;BME280;1809;48.470;9.226;2023-04-25T11:55:16;144756.16;;;7.15;100.00
3590;BME280;1809;48.470;9.226;2023-04-25T11:57:44;144419.53;;;7.18;100.00
3590;BME280;1809;48.470;9.226;2023-04-25T12:00:18;143388.09;;;7.20;100.00
3590;BME280;1809;48.470;9.226;2023-04-25T12:02:55;138527.44;;;7.04;100.00
3590;BME280;1809;48.470;9.226;2023-04-25T12:05:24;136455.97;;;7.02;100.00
3590;BME280;1809;48.470;9.226;2023-04-25T12:07:50;135030.19;;;6.80;100.00
3590;BME280;1809;48.470;9.226;2023-04-25T12:10:17;137857.03;;;7.13;100.00
3590;BME280;1809;48.470;9.226;2023-04-25T12:12:45;139229.03;;;7.10;100.00
3590;BME280;1809;48.470;9.226;2023-04-25T12:15:26;138922.59;;;7.27;100.00
3590;BME280;1809;48.470;9.226;2023-04-25T12:17:53;138581.53;;;7.28;100.00
3590;BME280;1809;48.470;9.226;2023-04-25T12:20:20;139985.50;;;7.39;100.00
3590;BME280;1809;48.470;9.226;2023-04-25T12:22:48;140720.63;;;7.59;100.00
3590;BME280;1809;48.470;9.226;2023-04-25T12:25:34;141781.41;;;7.70;100.00
3590;BME280;1809;48.470;9.226;2023-04-25T12:28:17;141135.81;;;7.89;100.00
3590;BME280;1809;48.470;9.226;2023-04-25T12:31:05;137212.72;;;7.32;100.00
3590;BME280;1809;48.470;9.226;2023-04-25T12:33:35;136838.78;;;7.19;100.00
3590;BME280;1809;48.470;9.226;2023-04-25T12:36:02;140340.75;;;7.44;100.00
3590;BME280;1809;48.470;9.226;2023-04-25T12:38:38;142818.00;;;7.71;100.00
3590;BME280;1809;48.470;9.226;2023-04-25T12:41:03;143482.25;;;7.60;100.00
3590;BME280;1809;48.470;9.226;2023-04-25T12:43:29;143858.47;;;7.73;100.00
3590;BME280;1809;48.470;9.226;2023-04-25T12:45:55;141770.81;;;7.66;100.00
3590;BME280;1809;48.470;9.226;2023-04-25T12:48:21;139358.53;;;7.67;100.00
3590;BME280;1809;48.470;9.226;2023-04-25T12:50:48;140069.16;;;7.76;100.00
3590;BME280;1809;48.470;9.226;2023-04-25T12:53:20;137659.94;;;7.78;100.00
3590;BME280;1809;48.470;9.226;2023-04-25T12:55:47;138719.56;;;7.89;100.00
3590;BME280;1809;48.470;9.226;2023-04-25T12:58:16;136993.22;;;7.88;100.00
3590;BME280;1809;48.470;9.226;2023-04-25T13:00:42;137337.97;;;7.88;100.00
3590;BME280;1809;48.470;9.226;2023-04-25T13:03:08;138687.38;;;7.75;100.00
3590;BME280;1809;48.470;9.226;2023-04-25T13:05:34;140892.41;;;8.33;100.00
3590;BME280;1809;48.470;9.226;2023-04-25T13:07:59;140897.06;;;8.35;100.00
3590;BME280;1809;48.470;9.226;2023-04-25T13:10:25;139865.78;;;8.37;100.00
3590;BME280;1809;48.470;9.226;2023-04-25T13:12:50;141340.91;;;8.78;100.00
3590;BME280;1809;48.470;9.226;2023-04-25T13:15:16;140990.56;;;8.76;100.00
3590;BME280;1809;48.470;9.226;2023-04-25T13:17:42;140711.47;;;9.04;100.00
3590;BME280;1809;48.470;9.226;2023-04-25T13:20:08;139311.50;;;8.97;100.00
3590;BME280;1809;48.470;9.226;2023-04-25T13:22:35;135040.81;;;8.40;100.00